createdAt,value
2023-01-19T00:02:39.914Z,32.0
2023-01-19T00:14:24.430Z,31.762541806020067
2023-01-19T00:22:06.481Z,32.63210702341137
2023-01-19T00:30:13.777Z,31.993311036789297
2023-01-19T00:37:51.117Z,30.765886287625417
2023-01-19T01:06:55.240Z,32.130434782608695
2023-01-19T01:13:52.072Z,31.63545150501672
2023-01-19T01:33:40.593Z,34.60535117056856
2023-01-19T01:46:31.266Z,35.88628762541806
2023-01-19T01:53:35.048Z,35.26086956521739
2023-01-19T02:00:38.830Z,36.17391304347826
2023-01-19T02:07:39.292Z,36.197324414715716
2023-01-19T02:14:42.241Z,35.21070234113712
2023-01-19T02:22:10.442Z,36.42809364548495
2023-01-19T02:36:40.290Z,35.21070234113712
2023-01-19T02:56:27.183Z,35.468227424749166
2023-01-19T03:04:32.597Z,34.5819397993311
2023-01-19T03:19:32.156Z,36.06688963210702
2023-01-19T03:28:31.872Z,35.929765886287626
2023-01-19T03:41:05.073Z,36.22408026755853
2023-01-19T03:49:31.672Z,35.25418060200669
2023-01-19T04:03:22.248Z,32.88963210702341
2023-01-19T04:11:35.420Z,33.63210702341137
2023-01-19T04:23:58.666Z,32.18394648829432
2023-01-19T04:32:01.257Z,32.297658862876254
2023-01-19T04:47:17.456Z,32.04013377926422
2023-01-19T04:56:12.833Z,32.50167224080268
2023-01-19T05:03:48.439Z,32.919732441471574
2023-01-19T05:24:20.213Z,34.64882943143812
2023-01-19T05:31:22.247Z,36.163879598662206
2023-01-19T05:39:00.200Z,35.68227424749164
2023-01-19T05:46:22.739Z,37.78260869565217
2023-01-19T05:55:30.724Z,38.441471571906355
2023-01-19T06:04:58.422Z,36.15719063545151
2023-01-19T06:11:51.145Z,37.61538461538461
2023-01-19T06:18:33.109Z,37.32775919732441
2023-01-19T06:25:15.519Z,36.080267558528426
2023-01-19T06:36:42.544Z,34.82943143812709
2023-01-19T06:43:21.233Z,33.31772575250836
2023-01-19T06:50:00.836Z,34.59531772575251
2023-01-19T06:56:56.492Z,34.66220735785953
2023-01-19T07:03:50.975Z,33.52842809364549
2023-01-19T07:28:50.857Z,33.91304347826087
2023-01-19T07:49:19.622Z,32.05016722408027
2023-01-19T07:59:03.616Z,32.852842809364546
2023-01-19T08:07:14.115Z,30.612040133779264
2023-01-19T08:14:54.727Z,33.09030100334448
2023-01-19T08:27:15.375Z,32.735785953177256
2023-01-19T08:34:20.808Z,31.97993311036789
2023-01-19T08:48:57.917Z,32.64882943143812
2023-01-19T08:55:35.429Z,32.03344481605351
2023-01-19T09:02:26.768Z,32.44481605351171
2023-01-19T09:09:22.945Z,31.013377926421406
2023-01-19T09:16:02.772Z,31.157190635451506
2023-01-19T09:22:43.354Z,29.682274247491637
2023-01-19T09:34:55.304Z,29.959866220735787
2023-01-19T09:44:06.770Z,27.63545150501672
2023-01-19T09:55:18.091Z,25.785953177257525
2023-01-19T10:01:59.719Z,26.367892976588628
2023-01-19T10:12:54.253Z,26.52173913043478
2023-01-19T10:19:32.752Z,28.214046822742475
2023-01-19T10:30:25.072Z,26.224080267558527
2023-01-19T10:36:59.276Z,25.698996655518396
2023-01-19T10:50:05.312Z,28.39799331103679
2023-01-19T11:02:27.998Z,33.74916387959866
2023-01-19T11:09:42.070Z,32.05685618729097
2023-01-19T11:26:07.908Z,25.180602006688964
2023-01-19T11:33:18.666Z,24.39464882943144
2023-01-19T11:39:55.851Z,19.86622073578595
2023-01-19T11:51:39.447Z,14.351170568561873
2023-01-19T12:00:57.801Z,10.849498327759198
2023-01-19T12:12:29.855Z,8.003344481605351
2023-01-19T12:19:13.451Z,6.093645484949833
2023-01-19T12:25:49.860Z,4.093645484949833
2023-01-19T12:37:20.675Z,2.8662207357859533
2023-01-19T12:44:26.276Z,3.4849498327759196
2023-01-19T12:51:19.475Z,3.4949832775919734
2023-01-19T12:58:10.497Z,2.4581939799331103
2023-01-19T13:04:57.979Z,3.3612040133779266
2023-01-19T13:11:38.009Z,2.0702341137123748
2023-01-19T13:25:04.163Z,2.1939799331103678
2023-01-19T13:32:47.819Z,2.270903010033445
2023-01-19T13:44:00.010Z,1.4414715719063544
2023-01-19T13:56:17.231Z,1.3010033444816054
2023-01-19T14:02:54.358Z,0.8996655518394648
2023-01-19T14:12:04.869Z,1.0100334448160535
2023-01-19T14:18:39.002Z,1.1806020066889633
2023-01-19T14:31:14.533Z,1.7391304347826086
2023-01-19T14:37:52.570Z,1.2307692307692308
2023-01-19T14:56:13.380Z,2.130434782608696
2023-01-19T15:02:45.430Z,1.725752508361204
2023-01-19T15:09:17.069Z,1.4782608695652173
2023-01-19T15:38:56.126Z,0.48494983277591974
2023-01-19T15:45:22.334Z,1.4548494983277591
2023-01-19T15:51:50.251Z,0.4080267558528428
2023-01-19T15:58:17.309Z,0.6287625418060201
2023-01-19T16:06:52.091Z,0.5618729096989966
2023-01-19T16:18:21.713Z,1.6321070234113713
2023-01-19T16:27:15.952Z,1.2073578595317727
2023-01-19T16:33:44.860Z,1.7525083612040133
2023-01-19T16:41:19.652Z,2.260869565217391
2023-01-19T16:47:52.218Z,3.3076923076923075
2023-01-19T16:59:36.157Z,2.882943143812709
2023-01-19T17:06:06.384Z,3.3344481605351173
2023-01-19T17:12:34.350Z,4.678929765886288
2023-01-19T17:22:07.894Z,7.0602006688963215
2023-01-19T17:28:38.679Z,6.377926421404682
2023-01-19T17:35:12.191Z,6.615384615384615
2023-01-19T17:41:45.733Z,9.076923076923077
2023-01-19T17:48:19.265Z,8.444816053511706
2023-01-19T17:54:55.431Z,7.963210702341137
2023-01-19T18:04:33.914Z,24.54515050167224
2023-01-19T18:15:17.003Z,9.244147157190636
2023-01-19T18:21:46.270Z,7.471571906354515
2023-01-19T18:28:13.723Z,6.8762541806020065
2023-01-19T18:34:45.981Z,6.879598662207358
2023-01-19T18:41:19.169Z,6.548494983277592
2023-01-19T18:50:59.116Z,6.959866220735786
2023-01-19T18:57:40.737Z,7.197324414715719
2023-01-19T19:04:38.427Z,7.441471571906354
2023-01-19T19:11:36.491Z,8.498327759197325
2023-01-19T19:18:23.062Z,6.561872909698996
2023-01-19T19:25:02.143Z,6.648829431438127
2023-01-19T19:35:11.839Z,4.444816053511706
2023-01-19T19:42:00.378Z,6.207357859531773
2023-01-19T19:48:44.871Z,7.722408026755853
2023-01-19T19:56:22.328Z,6.702341137123746
2023-01-19T20:05:03.974Z,8.08361204013378
2023-01-19T20:20:03.671Z,6.698996655518394
2023-01-19T20:26:53.062Z,9.749163879598662
2023-01-19T20:37:01.375Z,10.591973244147157
2023-01-19T20:53:42.163Z,10.993311036789297
2023-01-19T21:00:20.103Z,7.812709030100335
2023-01-19T21:06:55.411Z,7.026755852842809
2023-01-19T21:13:29.949Z,5.88628762541806
2023-01-19T21:20:20.395Z,5.525083612040134
2023-01-19T21:26:59.001Z,5.247491638795987
2023-01-19T21:33:39.824Z,6.234113712374582
2023-01-19T21:40:14.603Z,4.966555183946488
2023-01-19T21:46:50.426Z,5.565217391304348
2023-01-19T21:53:35.137Z,5.862876254180602
2023-01-19T22:00:29.305Z,6.615384615384615
2023-01-19T22:07:12.925Z,7.591973244147157
2023-01-19T22:14:13.556Z,6.88628762541806
2023-01-19T22:31:59.125Z,12.591973244147157
2023-01-19T22:40:51.904Z,19.25752508361204
2023-01-19T22:48:08.705Z,25.50836120401338
2023-01-19T22:55:27.026Z,29.100334448160535
2023-01-19T23:02:52.106Z,35.21739130434783
2023-01-19T23:14:56.899Z,37.18394648829432
2023-01-19T23:28:18.734Z,41.274247491638796
2023-01-19T23:43:11.144Z,44.2675585284281
2023-01-19T23:50:05.027Z,47.438127090301
2023-01-19T23:56:58.354Z,47.88628762541806
